La Baie, Canada
Current Conditions -  °F | °C
As of 2:00 AM on Monday 22 Dec 2014 (Local Time) from CYBG Reporting Station
Light Snow Light Snow  
Wind Chill:   Ceiling: 1900
Heat Index: 12°   Visibility: 10mi
Dew Point:   Wind: 5mph
Humidity: 85%   Direction: 270°W
Pressure: 30.4"   Gusts: NA
Location:  48.34°N, 70.88°W
Report Text: CYBG 220700Z 27004KT 10SM -SN OVC019 M11/M13 A3040 RMK SC8 SLP308
Loading
Personal Weather Stations






























Interactive Weather Map New forecast layout! Learn more

10-Day Weather Forecast

Advertisements
Track Severe Weather on mobile